sensor_id;sensor_type;location;lat;lon;timestamp;pressure;altitude;pressure_sealevel;temperature;humidity
77019;BME280;66044;53.142;17.962;2023-06-22T00:00:57;101259.25;;;20.53;70.76
77019;BME280;66044;53.142;17.962;2023-06-22T00:03:31;101267.00;;;20.56;70.67
77019;BME280;66044;53.142;17.962;2023-06-22T00:05:57;101270.14;;;20.58;70.45
77019;BME280;66044;53.142;17.962;2023-06-22T00:08:24;101273.34;;;20.57;70.44
77019;BME280;66044;53.142;17.962;2023-06-22T00:10:50;101272.58;;;20.59;70.35
77019;BME280;66044;53.142;17.962;2023-06-22T00:13:17;101278.51;;;20.62;70.32
77019;BME280;66044;53.142;17.962;2023-06-22T00:15:44;101280.88;;;20.64;70.23
77019;BME280;66044;53.142;17.962;2023-06-22T00:18:10;101280.97;;;20.65;70.14
77019;BME280;66044;53.142;17.962;2023-06-22T00:20:39;101282.08;;;20.67;70.21
77019;BME280;66044;53.142;17.962;2023-06-22T00:23:06;101280.98;;;20.67;70.16
77019;BME280;66044;53.142;17.962;2023-06-22T00:25:39;101282.84;;;20.67;70.09
77019;BME280;66044;53.142;17.962;2023-06-22T00:28:08;101279.41;;;20.66;70.13
77019;BME280;66044;53.142;17.962;2023-06-22T00:30:35;101287.14;;;20.66;70.16
77019;BME280;66044;53.142;17.962;2023-06-22T00:33:01;101290.24;;;20.65;70.18
77019;BME280;66044;53.142;17.962;2023-06-22T00:35:28;101292.83;;;20.66;70.28
77019;BME280;66044;53.142;17.962;2023-06-22T00:37:58;101294.45;;;20.65;70.30
77019;BME280;66044;53.142;17.962;2023-06-22T00:40:31;101299.58;;;20.62;70.40
77019;BME280;66044;53.142;17.962;2023-06-22T00:42:58;101297.61;;;20.61;70.42
77019;BME280;66044;53.142;17.962;2023-06-22T00:45:26;101297.76;;;20.58;70.46
77019;BME280;66044;53.142;17.962;2023-06-22T00:47:54;101294.48;;;20.57;70.49
77019;BME280;66044;53.142;17.962;2023-06-22T00:50:23;101297.51;;;20.57;70.35
77019;BME280;66044;53.142;17.962;2023-06-22T00:52:59;101299.61;;;20.56;70.40
77019;BME280;66044;53.142;17.962;2023-06-22T00:55:26;101299.63;;;20.58;70.36
77019;BME280;66044;53.142;17.962;2023-06-22T00:57:53;101299.80;;;20.59;70.26
77019;BME280;66044;53.142;17.962;2023-06-22T01:00:24;101297.84;;;20.61;70.29
77019;BME280;66044;53.142;17.962;2023-06-22T01:02:52;101298.27;;;20.63;70.23
77019;BME280;66044;53.142;17.962;2023-06-22T01:05:21;101301.07;;;20.63;70.22
77019;BME280;66044;53.142;17.962;2023-06-22T01:13:01;101305.89;;;20.60;70.10
77019;BME280;66044;53.142;17.962;2023-06-22T01:15:33;101312.50;;;20.61;69.91
77019;BME280;66044;53.142;17.962;2023-06-22T01:18:03;101307.52;;;20.61;69.84
77019;BME280;66044;53.142;17.962;2023-06-22T01:20:32;101310.40;;;20.60;69.53
77019;BME280;66044;53.142;17.962;2023-06-22T01:26:42;101308.45;;;20.58;69.26
77019;BME280;66044;53.142;17.962;2023-06-22T01:29:12;101309.66;;;20.56;68.85
77019;BME280;66044;53.142;17.962;2023-06-22T01:31:41;101305.20;;;20.52;68.69
77019;BME280;66044;53.142;17.962;2023-06-22T01:34:09;101305.71;;;20.48;68.57
77019;BME280;66044;53.142;17.962;2023-06-22T01:36:38;101306.14;;;20.44;68.42
77019;BME280;66044;53.142;17.962;2023-06-22T01:39:05;101302.61;;;20.41;68.28
77019;BME280;66044;53.142;17.962;2023-06-22T01:41:35;101304.77;;;20.37;68.12
77019;BME280;66044;53.142;17.962;2023-06-22T01:44:05;101306.25;;;20.33;68.03
77019;BME280;66044;53.142;17.962;2023-06-22T01:46:34;101309.71;;;20.28;68.01
77019;BME280;66044;53.142;17.962;2023-06-22T01:49:05;101307.31;;;20.22;67.85
77019;BME280;66044;53.142;17.962;2023-06-22T01:51:33;101310.84;;;20.17;67.84
77019;BME280;66044;53.142;17.962;2023-06-22T01:53:59;101307.84;;;20.12;67.85
77019;BME280;66044;53.142;17.962;2023-06-22T01:56:27;101306.30;;;20.07;67.82
77019;BME280;66044;53.142;17.962;2023-06-22T02:02:15;101303.29;;;19.94;67.73
77019;BME280;66044;53.142;17.962;2023-06-22T02:04:37;101303.92;;;19.88;67.74
77019;BME280;66044;53.142;17.962;2023-06-22T02:07:10;101304.02;;;19.82;67.80
77019;BME280;66044;53.142;17.962;2023-06-22T02:09:39;101301.38;;;19.76;67.87
77019;BME280;66044;53.142;17.962;2023-06-22T02:12:10;101299.74;;;19.69;67.96
77019;BME280;66044;53.142;17.962;2023-06-22T02:14:38;101306.52;;;19.64;68.08
77019;BME280;66044;53.142;17.962;2023-06-22T02:17:09;101305.85;;;19.59;68.19
77019;BME280;66044;53.142;17.962;2023-06-22T02:19:41;101311.39;;;19.54;68.22
77019;BME280;66044;53.142;17.962;2023-06-22T02:22:07;101318.89;;;19.50;68.28
77019;BME280;66044;53.142;17.962;2023-06-22T02:24:34;101328.33;;;19.46;68.30
77019;BME280;66044;53.142;17.962;2023-06-22T02:27:01;101329.44;;;19.43;68.40
77019;BME280;66044;53.142;17.962;2023-06-22T02:29:28;101328.91;;;19.38;68.48
77019;BME280;66044;53.142;17.962;2023-06-22T02:31:55;101334.12;;;19.33;68.62
77019;BME280;66044;53.142;17.962;2023-06-22T02:34:21;101334.45;;;19.27;68.70
77019;BME280;66044;53.142;17.962;2023-06-22T02:36:49;101334.44;;;19.21;68.87
77019;BME280;66044;53.142;17.962;2023-06-22T02:39:23;101335.31;;;19.18;69.00
77019;BME280;66044;53.142;17.962;2023-06-22T02:41:51;101337.02;;;19.17;69.03
77019;BME280;66044;53.142;17.962;2023-06-22T02:44:18;101335.05;;;19.15;69.05
77019;BME280;66044;53.142;17.962;2023-06-22T02:46:45;101331.23;;;19.15;69.01
77019;BME280;66044;53.142;17.962;2023-06-22T02:49:12;101337.41;;;19.18;68.91
77019;BME280;66044;53.142;17.962;2023-06-22T02:51:41;101337.52;;;19.23;68.72
77019;BME280;66044;53.142;17.962;2023-06-22T02:54:08;101339.11;;;19.27;68.51
77019;BME280;66044;53.142;17.962;2023-06-22T02:56:34;101332.73;;;19.33;68.39
77019;BME280;66044;53.142;17.962;2023-06-22T02:59:03;101332.38;;;19.41;68.10
77019;BME280;66044;53.142;17.962;2023-06-22T03:01:29;101332.95;;;19.48;67.85
77019;BME280;66044;53.142;17.962;2023-06-22T03:03:56;101340.14;;;19.55;67.63
77019;BME280;66044;53.142;17.962;2023-06-22T03:06:23;101341.01;;;19.62;67.36
77019;BME280;66044;53.142;17.962;2023-06-22T03:08:59;101344.89;;;19.68;67.14
77019;BME280;66044;53.142;17.962;2023-06-22T03:11:26;101344.67;;;19.74;66.92
77019;BME280;66044;53.142;17.962;2023-06-22T03:13:53;101354.16;;;19.80;66.68
77019;BME280;66044;53.142;17.962;2023-06-22T03:16:20;101356.48;;;19.86;66.45
77019;BME280;66044;53.142;17.962;2023-06-22T03:18:46;101360.59;;;19.90;66.32
77019;BME280;66044;53.142;17.962;2023-06-22T03:21:12;101361.77;;;19.97;66.14
77019;BME280;66044;53.142;17.962;2023-06-22T03:23:41;101363.88;;;20.05;65.95
77019;BME280;66044;53.142;17.962;2023-06-22T03:26:09;101363.11;;;20.13;65.77
77019;BME280;66044;53.142;17.962;2023-06-22T03:28:37;101360.94;;;20.21;65.50
77019;BME280;66044;53.142;17.962;2023-06-22T03:31:04;101359.02;;;20.26;65.43
77019;BME280;66044;53.142;17.962;2023-06-22T03:33:32;101362.48;;;20.34;65.18
77019;BME280;66044;53.142;17.962;2023-06-22T03:35:59;101367.80;;;20.42;64.88
77019;BME280;66044;53.142;17.962;2023-06-22T03:38:26;101370.09;;;20.54;64.73
77019;BME280;66044;53.142;17.962;2023-06-22T03:40:52;101370.50;;;20.65;64.50
77019;BME280;66044;53.142;17.962;2023-06-22T03:43:18;101378.36;;;20.79;64.18
77019;BME280;66044;53.142;17.962;2023-06-22T03:45:45;101382.95;;;21.00;63.72
77019;BME280;66044;53.142;17.962;2023-06-22T03:48:12;101385.08;;;21.57;63.06
77019;BME280;66044;53.142;17.962;2023-06-22T03:50:38;101398.95;;;22.56;61.71
77019;BME280;66044;53.142;17.962;2023-06-22T03:53:05;101397.90;;;23.76;59.76
77019;BME280;66044;53.142;17.962;2023-06-22T03:55:31;101404.25;;;24.81;57.89
77019;BME280;66044;53.142;17.962;2023-06-22T03:57:58;101398.11;;;25.59;56.08
77019;BME280;66044;53.142;17.962;2023-06-22T04:00:24;101400.01;;;26.28;54.23
77019;BME280;66044;53.142;17.962;2023-06-22T04:02:51;101401.11;;;26.94;52.43
77019;BME280;66044;53.142;17.962;2023-06-22T04:05:17;101402.43;;;27.61;50.97
77019;BME280;66044;53.142;17.962;2023-06-22T04:07:45;101406.89;;;28.45;49.41
77019;BME280;66044;53.142;17.962;2023-06-22T04:10:11;101407.00;;;29.34;47.61
77019;BME280;66044;53.142;17.962;2023-06-22T04:12:38;101413.18;;;30.06;46.14
77019;BME280;66044;53.142;17.962;2023-06-22T04:15:05;101413.20;;;30.36;44.92
77019;BME280;66044;53.142;17.962;2023-06-22T04:17:32;101412.70;;;30.80;43.65
77019;BME280;66044;53.142;17.962;2023-06-22T04:19:58;101416.36;;;31.58;42.31
77019;BME280;66044;53.142;17.962;2023-06-22T04:22:25;101424.93;;;32.36;41.02
77019;BME280;66044;53.142;17.962;2023-06-22T04:24:51;101425.51;;;33.02;39.87
77019;BME280;66044;53.142;17.962;2023-06-22T04:27:19;101424.48;;;33.83;38.57
77019;BME280;66044;53.142;17.962;2023-06-22T04:29:46;101421.50;;;34.52;37.40
77019;BME280;66044;53.142;17.962;2023-06-22T04:32:15;101420.34;;;35.13;36.14
77019;BME280;66044;53.142;17.962;2023-06-22T04:34:42;101419.28;;;35.79;35.25
77019;BME280;66044;53.142;17.962;2023-06-22T04:37:09;101419.80;;;36.50;34.31
77019;BME280;66044;53.142;17.962;2023-06-22T04:39:42;101423.88;;;37.23;33.01
77019;BME280;66044;53.142;17.962;2023-06-22T04:42:09;101420.70;;;37.94;32.18
77019;BME280;66044;53.142;17.962;2023-06-22T04:44:36;101419.88;;;38.62;31.12
77019;BME280;66044;53.142;17.962;2023-06-22T04:47:03;101430.53;;;39.26;30.14
77019;BME280;66044;53.142;17.962;2023-06-22T04:49:30;101436.98;;;39.84;29.16
77019;BME280;66044;53.142;17.962;2023-06-22T04:52:03;101438.02;;;40.31;28.04
77019;BME280;66044;53.142;17.962;2023-06-22T04:54:30;101439.88;;;40.71;27.60
77019;BME280;66044;53.142;17.962;2023-06-22T04:57:01;101438.12;;;41.33;27.09
77019;BME280;66044;53.142;17.962;2023-06-22T04:59:29;101442.11;;;41.93;26.35
77019;BME280;66044;53.142;17.962;2023-06-22T05:02:00;101440.22;;;42.51;25.61
77019;BME280;66044;53.142;17.962;2023-06-22T05:04:27;101445.15;;;43.13;24.85
77019;BME280;66044;53.142;17.962;2023-06-22T05:06:54;101440.04;;;43.61;24.33
77019;BME280;66044;53.142;17.962;2023-06-22T05:09:21;101446.31;;;43.96;23.53
77019;BME280;66044;53.142;17.962;2023-06-22T05:11:48;101454.20;;;44.31;23.19
77019;BME280;66044;53.142;17.962;2023-06-22T05:14:14;101458.64;;;44.54;22.56
77019;BME280;66044;53.142;17.962;2023-06-22T05:16:42;101460.09;;;44.91;22.22
77019;BME280;66044;53.142;17.962;2023-06-22T05:19:09;101451.14;;;45.24;21.90
77019;BME280;66044;53.142;17.962;2023-06-22T05:21:36;101455.45;;;45.82;21.34
77019;BME280;66044;53.142;17.962;2023-06-22T05:24:03;101461.54;;;46.52;20.91
77019;BME280;66044;53.142;17.962;2023-06-22T05:26:31;101469.70;;;47.09;20.10
77019;BME280;66044;53.142;17.962;2023-06-22T05:29:00;101467.43;;;47.49;19.81
77019;BME280;66044;53.142;17.962;2023-06-22T05:31:27;101469.79;;;47.98;19.17
77019;BME280;66044;53.142;17.962;2023-06-22T05:33:55;101472.58;;;48.22;18.78
77019;BME280;66044;53.142;17.962;2023-06-22T05:36:22;101469.39;;;48.48;18.30
77019;BME280;66044;53.142;17.962;2023-06-22T05:38:52;101470.90;;;48.75;18.02
77019;BME280;66044;53.142;17.962;2023-06-22T05:41:19;101474.77;;;49.14;17.48
77019;BME280;66044;53.142;17.962;2023-06-22T05:43:46;101473.31;;;49.44;17.13
77019;BME280;66044;53.142;17.962;2023-06-22T05:46:12;101468.58;;;49.67;16.92
77019;BME280;66044;53.142;17.962;2023-06-22T05:48:39;101464.48;;;50.04;16.83
77019;BME280;66044;53.142;17.962;2023-06-22T05:51:05;101461.56;;;50.57;16.43
77019;BME280;66044;53.142;17.962;2023-06-22T05:53:32;101464.27;;;50.95;15.83
77019;BME280;66044;53.142;17.962;2023-06-22T05:55:58;101467.26;;;51.20;15.66
77019;BME280;66044;53.142;17.962;2023-06-22T05:58:24;101461.06;;;51.41;15.56
77019;BME280;66044;53.142;17.962;2023-06-22T06:00:51;101462.27;;;51.84;15.26
77019;BME280;66044;53.142;17.962;2023-06-22T06:03:17;101461.46;;;52.22;15.06
77019;BME280;66044;53.142;17.962;2023-06-22T06:05:44;101455.73;;;52.73;14.73
77019;BME280;66044;53.142;17.962;2023-06-22T06:08:11;101453.42;;;53.30;14.22
77019;BME280;66044;53.142;17.962;2023-06-22T06:10:38;101458.83;;;53.74;13.66
77019;BME280;66044;53.142;17.962;2023-06-22T06:13:05;101453.33;;;54.08;13.75
77019;BME280;66044;53.142;17.962;2023-06-22T06:15:32;101453.55;;;54.50;13.33
77019;BME280;66044;53.142;17.962;2023-06-22T06:17:59;101444.46;;;54.92;12.93
77019;BME280;66044;53.142;17.962;2023-06-22T06:20:26;101450.26;;;55.34;12.81
77019;BME280;66044;53.142;17.962;2023-06-22T06:22:54;101456.64;;;55.48;12.38
77019;BME280;66044;53.142;17.962;2023-06-22T06:25:20;101457.83;;;55.73;12.16
77019;BME280;66044;53.142;17.962;2023-06-22T06:27:50;101467.15;;;55.96;11.80
77019;BME280;66044;53.142;17.962;2023-06-22T06:30:18;101466.41;;;56.02;11.41
77019;BME280;66044;53.142;17.962;2023-06-22T06:32:46;101463.84;;;55.96;11.20
77019;BME280;66044;53.142;17.962;2023-06-22T06:35:14;101462.74;;;56.11;11.24
77019;BME280;66044;53.142;17.962;2023-06-22T06:37:46;101458.61;;;56.42;11.39
77019;BME280;66044;53.142;17.962;2023-06-22T06:40:13;101461.13;;;56.68;11.06
77019;BME280;66044;53.142;17.962;2023-06-22T06:42:45;101457.51;;;56.84;10.66
77019;BME280;66044;53.142;17.962;2023-06-22T06:45:15;101452.68;;;57.09;10.66
77019;BME280;66044;53.142;17.962;2023-06-22T06:47:41;101447.77;;;57.27;10.71
77019;BME280;66044;53.142;17.962;2023-06-22T06:50:08;101448.14;;;57.48;10.43
77019;BME280;66044;53.142;17.962;2023-06-22T06:52:35;101445.44;;;57.60;10.34
77019;BME280;66044;53.142;17.962;2023-06-22T06:55:02;101443.30;;;57.72;10.01
77019;BME280;66044;53.142;17.962;2023-06-22T06:57:30;101437.36;;;57.83;9.86
77019;BME280;66044;53.142;17.962;2023-06-22T06:59:57;101438.41;;;57.92;9.66
77019;BME280;66044;53.142;17.962;2023-06-22T07:02:25;101439.45;;;58.07;9.78
77019;BME280;66044;53.142;17.962;2023-06-22T07:04:52;101435.55;;;58.15;9.68
77019;BME280;66044;53.142;17.962;2023-06-22T07:07:18;101431.21;;;58.15;9.72
77019;BME280;66044;53.142;17.962;2023-06-22T07:09:45;101430.09;;;57.99;9.71
77019;BME280;66044;53.142;17.962;2023-06-22T07:12:11;101427.52;;;57.97;9.56
77019;BME280;66044;53.142;17.962;2023-06-22T07:14:38;101422.11;;;57.87;9.28
77019;BME280;66044;53.142;17.962;2023-06-22T07:17:04;101423.27;;;57.76;9.25
77019;BME280;66044;53.142;17.962;2023-06-22T07:19:33;101424.74;;;57.77;9.32
77019;BME280;66044;53.142;17.962;2023-06-22T07:21:59;101422.17;;;57.77;9.51
77019;BME280;66044;53.142;17.962;2023-06-22T07:24:25;101422.44;;;57.55;9.47
77019;BME280;66044;53.142;17.962;2023-06-22T07:26:52;101420.55;;;57.35;9.76
77019;BME280;66044;53.142;17.962;2023-06-22T07:29:21;101421.65;;;57.09;9.57
77019;BME280;66044;53.142;17.962;2023-06-22T07:31:49;101431.39;;;56.56;10.08
77019;BME280;66044;53.142;17.962;2023-06-22T07:34:17;101423.23;;;55.64;10.20
77019;BME280;66044;53.142;17.962;2023-06-22T07:36:45;101416.52;;;54.24;10.70
77019;BME280;66044;53.142;17.962;2023-06-22T07:39:12;101411.56;;;52.37;11.47
77019;BME280;66044;53.142;17.962;2023-06-22T07:41:39;101410.30;;;50.31;12.67
77019;BME280;66044;53.142;17.962;2023-06-22T07:44:07;101403.24;;;48.15;13.38
77019;BME280;66044;53.142;17.962;2023-06-22T07:46:33;101398.54;;;45.90;14.84
77019;BME280;66044;53.142;17.962;2023-06-22T07:49:00;101394.27;;;44.05;16.21
77019;BME280;66044;53.142;17.962;2023-06-22T07:51:27;101387.86;;;42.43;17.46
77019;BME280;66044;53.142;17.962;2023-06-22T07:53:54;101382.59;;;41.07;18.29
77019;BME280;66044;53.142;17.962;2023-06-22T07:56:20;101379.04;;;39.83;19.37
77019;BME280;66044;53.142;17.962;2023-06-22T07:58:47;101378.27;;;38.85;20.25
77019;BME280;66044;53.142;17.962;2023-06-22T08:01:14;101374.52;;;38.00;21.28
77019;BME280;66044;53.142;17.962;2023-06-22T08:03:41;101375.31;;;37.15;21.90
77019;BME280;66044;53.142;17.962;2023-06-22T08:06:07;101379.63;;;36.40;22.94
77019;BME280;66044;53.142;17.962;2023-06-22T08:08:36;101381.88;;;35.86;23.82
77019;BME280;66044;53.142;17.962;2023-06-22T08:11:02;101380.45;;;35.39;24.52
77019;BME280;66044;53.142;17.962;2023-06-22T08:13:29;101384.96;;;35.00;24.63
77019;BME280;66044;53.142;17.962;2023-06-22T08:15:55;101385.84;;;34.52;25.06
77019;BME280;66044;53.142;17.962;2023-06-22T08:18:22;101391.25;;;34.11;25.53
77019;BME280;66044;53.142;17.962;2023-06-22T08:20:48;101395.24;;;33.73;25.77
77019;BME280;66044;53.142;17.962;2023-06-22T08:23:16;101392.20;;;33.20;26.39
77019;BME280;66044;53.142;17.962;2023-06-22T08:25:43;101382.79;;;32.80;27.16
77019;BME280;66044;53.142;17.962;2023-06-22T08:28:09;101376.34;;;32.54;27.59
77019;BME280;66044;53.142;17.962;2023-06-22T08:30:36;101381.05;;;32.18;28.25
77019;BME280;66044;53.142;17.962;2023-06-22T08:33:03;101379.94;;;32.00;28.78
77019;BME280;66044;53.142;17.962;2023-06-22T08:35:29;101382.69;;;31.90;29.77
77019;BME280;66044;53.142;17.962;2023-06-22T08:37:56;101383.77;;;31.89;29.85
77019;BME280;66044;53.142;17.962;2023-06-22T08:40:23;101385.73;;;31.89;29.99
77019;BME280;66044;53.142;17.962;2023-06-22T08:42:50;101383.40;;;31.82;30.11
77019;BME280;66044;53.142;17.962;2023-06-22T08:45:17;101381.48;;;31.79;29.94
77019;BME280;66044;53.142;17.962;2023-06-22T08:47:43;101379.55;;;31.74;30.46
77019;BME280;66044;53.142;17.962;2023-06-22T08:50:10;101377.61;;;31.69;30.10
77019;BME280;66044;53.142;17.962;2023-06-22T08:52:38;101378.33;;;31.55;29.87
77019;BME280;66044;53.142;17.962;2023-06-22T08:55:08;101375.50;;;31.42;30.03
77019;BME280;66044;53.142;17.962;2023-06-22T08:57:35;101371.39;;;31.33;30.30
77019;BME280;66044;53.142;17.962;2023-06-22T09:00:08;101377.06;;;31.19;29.83
77019;BME280;66044;53.142;17.962;2023-06-22T09:02:44;101377.77;;;30.97;29.71
77019;BME280;66044;53.142;17.962;2023-06-22T09:05:10;101372.50;;;30.73;30.09
77019;BME280;66044;53.142;17.962;2023-06-22T09:07:37;101374.45;;;30.57;30.59
77019;BME280;66044;53.142;17.962;2023-06-22T09:10:05;101374.27;;;30.48;30.88
77019;BME280;66044;53.142;17.962;2023-06-22T09:12:32;101368.72;;;30.40;30.80
77019;BME280;66044;53.142;17.962;2023-06-22T09:14:59;101364.48;;;30.24;30.98
77019;BME280;66044;53.142;17.962;2023-06-22T09:17:26;101366.48;;;30.14;31.37
77019;BME280;66044;53.142;17.962;2023-06-22T09:19:53;101359.59;;;30.08;31.64
77019;BME280;66044;53.142;17.962;2023-06-22T09:22:20;101360.65;;;30.00;31.21
77019;BME280;66044;53.142;17.962;2023-06-22T09:24:46;101353.83;;;29.92;31.18
77019;BME280;66044;53.142;17.962;2023-06-22T09:27:13;101350.11;;;29.84;31.23
77019;BME280;66044;53.142;17.962;2023-06-22T09:29:39;101346.65;;;29.78;31.11
77019;BME280;66044;53.142;17.962;2023-06-22T09:32:07;101346.58;;;29.75;31.31
77019;BME280;66044;53.142;17.962;2023-06-22T09:34:33;101347.74;;;29.76;31.94
77019;BME280;66044;53.142;17.962;2023-06-22T09:37:00;101344.89;;;29.76;32.00
77019;BME280;66044;53.142;17.962;2023-06-22T09:39:29;101343.11;;;29.75;32.07
77019;BME280;66044;53.142;17.962;2023-06-22T09:41:59;101350.91;;;29.68;31.84
77019;BME280;66044;53.142;17.962;2023-06-22T09:44:26;101348.77;;;29.59;31.56
77019;BME280;66044;53.142;17.962;2023-06-22T09:46:53;101344.17;;;29.60;31.61
77019;BME280;66044;53.142;17.962;2023-06-22T09:49:19;101345.22;;;29.62;31.25
77019;BME280;66044;53.142;17.962;2023-06-22T09:51:45;101339.12;;;29.57;31.05
77019;BME280;66044;53.142;17.962;2023-06-22T09:54:12;101341.02;;;29.46;31.00
77019;BME280;66044;53.142;17.962;2023-06-22T09:56:41;101341.68;;;29.42;31.35
77019;BME280;66044;53.142;17.962;2023-06-22T09:59:07;101340.64;;;29.42;31.66
77019;BME280;66044;53.142;17.962;2023-06-22T10:01:33;101342.84;;;29.43;31.75
77019;BME280;66044;53.142;17.962;2023-06-22T10:04:02;101347.06;;;29.42;31.69
77019;BME280;66044;53.142;17.962;2023-06-22T10:06:28;101347.71;;;29.41;31.71
77019;BME280;66044;53.142;17.962;2023-06-22T10:08:55;101345.09;;;29.39;31.73
77019;BME280;66044;53.142;17.962;2023-06-22T10:11:21;101343.39;;;29.34;32.02
77019;BME280;66044;53.142;17.962;2023-06-22T10:13:53;101341.04;;;29.31;32.02
77019;BME280;66044;53.142;17.962;2023-06-22T10:16:19;101341.19;;;29.25;31.95
77019;BME280;66044;53.142;17.962;2023-06-22T10:18:46;101339.00;;;29.21;32.42
77019;BME280;66044;53.142;17.962;2023-06-22T10:21:12;101331.88;;;29.21;32.33
77019;BME280;66044;53.142;17.962;2023-06-22T10:23:39;101332.99;;;29.21;32.59
77019;BME280;66044;53.142;17.962;2023-06-22T10:26:05;101333.58;;;29.23;32.83
77019;BME280;66044;53.142;17.962;2023-06-22T10:28:31;101327.65;;;29.22;32.92
77019;BME280;66044;53.142;17.962;2023-06-22T10:30:58;101328.23;;;29.18;32.66
77019;BME280;66044;53.142;17.962;2023-06-22T10:33:24;101329.13;;;29.15;32.99
77019;BME280;66044;53.142;17.962;2023-06-22T10:35:51;101330.64;;;29.12;32.89
77019;BME280;66044;53.142;17.962;2023-06-22T10:38:17;101330.32;;;29.11;33.02
77019;BME280;66044;53.142;17.962;2023-06-22T10:40:43;101332.77;;;29.06;33.14
77019;BME280;66044;53.142;17.962;2023-06-22T10:43:10;101332.02;;;29.05;33.46
77019;BME280;66044;53.142;17.962;2023-06-22T10:45:36;101329.81;;;29.07;32.87
77019;BME280;66044;53.142;17.962;2023-06-22T10:48:03;101325.17;;;29.03;32.52
77019;BME280;66044;53.142;17.962;2023-06-22T10:50:29;101324.29;;;29.02;32.63
77019;BME280;66044;53.142;17.962;2023-06-22T10:52:56;101318.54;;;29.03;32.54
77019;BME280;66044;53.142;17.962;2023-06-22T10:55:22;101315.37;;;29.03;32.96
77019;BME280;66044;53.142;17.962;2023-06-22T10:57:49;101316.21;;;29.04;33.17
77019;BME280;66044;53.142;17.962;2023-06-22T11:00:16;101313.80;;;29.00;33.03
77019;BME280;66044;53.142;17.962;2023-06-22T11:02:43;101315.95;;;28.91;32.65
77019;BME280;66044;53.142;17.962;2023-06-22T11:05:10;101316.84;;;28.84;32.80
77019;BME280;66044;53.142;17.962;2023-06-22T11:07:37;101317.91;;;28.79;32.62
77019;BME280;66044;53.142;17.962;2023-06-22T11:10:05;101318.74;;;28.67;32.63
77019;BME280;66044;53.142;17.962;2023-06-22T11:12:32;101322.30;;;28.61;32.61
77019;BME280;66044;53.142;17.962;2023-06-22T11:14:58;101328.88;;;28.54;33.31
77019;BME280;66044;53.142;17.962;2023-06-22T11:17:25;101322.92;;;28.49;33.83
77019;BME280;66044;53.142;17.962;2023-06-22T11:19:51;101317.68;;;28.47;33.88
77019;BME280;66044;53.142;17.962;2023-06-22T11:22:18;101314.15;;;28.46;33.80
77019;BME280;66044;53.142;17.962;2023-06-22T11:24:44;101311.77;;;28.46;33.87
77019;BME280;66044;53.142;17.962;2023-06-22T11:27:11;101310.25;;;28.47;34.08
77019;BME280;66044;53.142;17.962;2023-06-22T11:29:37;101313.64;;;28.47;34.03
77019;BME280;66044;53.142;17.962;2023-06-22T11:32:06;101317.95;;;28.46;33.18
77019;BME280;66044;53.142;17.962;2023-06-22T11:34:34;101320.73;;;28.45;32.96
77019;BME280;66044;53.142;17.962;2023-06-22T11:37:01;101317.55;;;28.42;32.89
77019;BME280;66044;53.142;17.962;2023-06-22T11:39:27;101312.98;;;28.39;32.57
77019;BME280;66044;53.142;17.962;2023-06-22T11:41:54;101316.74;;;28.41;33.08
77019;BME280;66044;53.142;17.962;2023-06-22T11:44:20;101309.86;;;28.41;33.10
77019;BME280;66044;53.142;17.962;2023-06-22T11:46:47;101315.30;;;28.38;33.24
77019;BME280;66044;53.142;17.962;2023-06-22T11:49:15;101311.44;;;28.34;33.32
77019;BME280;66044;53.142;17.962;2023-06-22T11:51:41;101312.38;;;28.28;33.26
77019;BME280;66044;53.142;17.962;2023-06-22T11:54:07;101309.86;;;28.25;33.60
77019;BME280;66044;53.142;17.962;2023-06-22T11:56:34;101304.45;;;28.23;33.53
77019;BME280;66044;53.142;17.962;2023-06-22T11:59:00;101306.54;;;28.22;33.36
77019;BME280;66044;53.142;17.962;2023-06-22T12:01:27;101297.98;;;28.23;33.40
77019;BME280;66044;53.142;17.962;2023-06-22T12:03:53;101298.94;;;28.26;33.64
77019;BME280;66044;53.142;17.962;2023-06-22T12:06:20;101296.07;;;28.30;33.40
77019;BME280;66044;53.142;17.962;2023-06-22T12:08:46;101288.36;;;28.32;33.17
77019;BME280;66044;53.142;17.962;2023-06-22T12:11:13;101285.11;;;28.35;33.17
77019;BME280;66044;53.142;17.962;2023-06-22T12:13:39;101288.58;;;28.39;33.35
77019;BME280;66044;53.142;17.962;2023-06-22T12:16:05;101288.36;;;28.44;32.92
77019;BME280;66044;53.142;17.962;2023-06-22T12:18:32;101283.45;;;28.45;32.72
77019;BME280;66044;53.142;17.962;2023-06-22T12:20:59;101285.11;;;28.45;32.95
77019;BME280;66044;53.142;17.962;2023-06-22T12:23:25;101286.27;;;28.47;33.22
77019;BME280;66044;53.142;17.962;2023-06-22T12:25:52;101286.08;;;28.50;33.19
77019;BME280;66044;53.142;17.962;2023-06-22T12:28:18;101281.84;;;28.49;33.17
77019;BME280;66044;53.142;17.962;2023-06-22T12:30:44;101279.02;;;28.52;33.37
77019;BME280;66044;53.142;17.962;2023-06-22T12:33:11;101272.71;;;28.54;33.03
77019;BME280;66044;53.142;17.962;2023-06-22T12:35:37;101276.17;;;28.55;33.00
77019;BME280;66044;53.142;17.962;2023-06-22T12:38:04;101275.17;;;28.60;33.31
77019;BME280;66044;53.142;17.962;2023-06-22T12:40:32;101272.54;;;28.66;32.84
77019;BME280;66044;53.142;17.962;2023-06-22T12:42:59;101255.64;;;28.69;32.11
77019;BME280;66044;53.142;17.962;2023-06-22T12:45:26;101264.19;;;28.72;32.21
77019;BME280;66044;53.142;17.962;2023-06-22T12:47:55;101262.61;;;28.78;32.19
77019;BME280;66044;53.142;17.962;2023-06-22T12:50:21;101255.11;;;28.84;32.20
77019;BME280;66044;53.142;17.962;2023-06-22T12:52:48;101254.13;;;28.91;32.50